Pregled zadnjih 96 podatkov za postajo Žalec Inštitut (2079)

Čas Temperatura tal (10 cm) (°C)  Temperatura (2 m) (°C)  Sončno sevanje (W/m2)  Smer vetra (3 m) (°)  Relativna zračna vlaga (2 m) (%RH)  Padavine (mm)  Omočenost lista (1,5 m) (U)  Hitrost vetra (3 m) (km/h)  Temp. rosišča (2m) (°C)  Temp. mokrega term. (2m) (°C) 
19.4.2021 21:30 5,2 7,8 0 310 99 0 9 1,7 7,7 7,7
19.4.2021 21:00 5,3 8 0 266 98 0,2 7 2,8 7,8 7,9
19.4.2021 20:30 5,3 8,1 0 292 97 0,2 6 3,8 7,7 7,9
19.4.2021 20:00 5,4 8,3 0 237 95 0,4 6 2,3 7,5 7,9
19.4.2021 19:30 5,5 8,4 8 288 93 0,6 7 1,8 7,4 7,9
19.4.2021 19:00 5,5 8,6 23 8 89 0,2 9 0,8 7 7,8
19.4.2021 18:30 5,6 8,7 65 108 90 0,2 9 3,3 7,1 7,9
19.4.2021 18:00 5,6 8,9 58 164 87 0,2 10 2,9 6,9 7,9
19.4.2021 17:30 5,6 9,5 74 89 82 0,2 10 4,1 6,6 8
19.4.2021 17:00 5,6 9,5 137 94 82 0,4 10 4,2 6,6 8
19.4.2021 16:30 5,5 10,4 189 99 74 0 1 6,4 6 8,2
19.4.2021 16:00 5,5 10,5 292 119 75 0 0 6,2 6,3 8,4
19.4.2021 15:30 5,4 10,2 317 135 75 0 4 5,4 6 8,1
19.4.2021 15:00 5,3 10,3 271 104 77 0 10 4,8 6,4 8,3
19.4.2021 14:30 5,1 10,2 245 174 75 0 10 3,9 5,9 8,1
19.4.2021 14:00 5 10,4 451 177 73 0 10 3,7 5,8 8,1
19.4.2021 13:30 4,9 9,7 337 173 78 0 9 4,2 6 7,8
19.4.2021 13:00 4,9 9,7 167 155 75 0,2 10 3,7 5,5 7,6
19.4.2021 12:30 4,7 10,5 239 135 67 0 10 2,6 4,7 7,6
19.4.2021 12:00 4,6 10,5 250 58 65 0 1 5,1 4,1 7,4
19.4.2021 11:30 4,5 10,5 335 331 64 0 0 4 4 7,4
19.4.2021 11:00 4,4 9,9 355 69 67 0 0 5,3 4 7,1
19.4.2021 10:30 4,3 9,5 314 351 71 0 0 6,3 4,5 7,1
19.4.2021 10:00 4,2 8,8 273 335 80 0 0 5,7 5,6 7,3
19.4.2021 9:30 4,1 8 247 300 86 0 1 6,2 5,8 6,9
19.4.2021 9:00 4 7,1 189 262 90 0 3 7 5,5 6,4
19.4.2021 8:30 4 6,3 104 275 94 0 0 7,1 5,4 5,9
19.4.2021 8:00 4 5,9 96 275 95 0 0 6,9 5,2 5,6
19.4.2021 7:30 4 5,6 66 296 97 0 1 4,6 5,2 5,4
19.4.2021 7:00 4,1 5,4 26 284 98 0 9 3,2 5,1 5,3
19.4.2021 6:30 4,1 5,3 4 292 98 0 10 3,3 5,1 5,2
19.4.2021 6:00 4,1 5,3 0 286 99 0 10 4,1 5,1 5,2
19.4.2021 5:30 4,2 5,2 0 285 99 0 9 3 5,1 5,1
19.4.2021 5:00 4,2 5,3 0 270 99 0 10 2,4 5,2 5,3
19.4.2021 4:30 4,3 5,5 0 242 99 0 10 1,7 5,3 5,4
19.4.2021 4:00 4,3 5,6 0 308 98 0 10 2,7 5,4 5,5
19.4.2021 3:30 4,4 5,8 0 337 97 0 10 1,7 5,4 5,6
19.4.2021 3:00 4,4 6 0 2 96 0 10 0,6 5,4 5,7
19.4.2021 2:30 4,5 6 0 307 96 0 10 1,8 5,4 5,7
19.4.2021 2:00 4,5 6,3 0 262 96 0 10 4,1 5,7 6
19.4.2021 1:30 4,6 6,4 0 261 96 0 10 5,2 5,8 6,1
19.4.2021 1:00 4,6 6,7 0 274 94 0 10 5 5,8 6,2
19.4.2021 0:30 4,6 6,8 0 287 92 0 10 4,9 5,7 6,3
19.4.2021 0:00 4,7 7,2 0 276 88 0 10 2,5 5,3 6,3
18.4.2021 23:30 4,8 7,1 0 352 87 0 8 0,9 5 6,1
18.4.2021 23:00 4,8 7,3 0 199 84 0 1 1,3 4,8 6,1
18.4.2021 22:30 4,9 7,5 0 89 82 0 0 1,1 4,6 6,1
18.4.2021 22:00 5 7,3 0 134 84 0 1 1,6 4,8 6,1
18.4.2021 21:30 5,1 7,4 0 281 84 0 3 1,5 4,9 6,2
18.4.2021 21:00 5,2 8 0 250 81 0 1 0,5 4,9 6,5
18.4.2021 20:30 5,3 8,6 0 245 76 0 0 1,9 4,6 6,7
18.4.2021 20:00 5,3 9 2 321 73 0 0 2,1 4,3 6,7
18.4.2021 19:30 5,4 9,4 26 314 71 0 0 3,5 4,4 7
18.4.2021 19:00 5,4 9,8 67 334 68 0 0 3 4,1 7,1
18.4.2021 18:30 5,4 10,2 101 338 64 0 0 3,7 3,6 7
18.4.2021 18:00 5,4 10,6 151 32 62 0 0 2,4 3,6 7,2
18.4.2021 17:30 5,3 10,4 213 283 63 0 0 5 3,8 7,2
18.4.2021 17:00 5,3 10,4 261 112 64 0 0 4,1 3,9 7,2
18.4.2021 16:30 5,3 10,1 299 4 67 0 0 5,7 4,3 7,3
18.4.2021 16:00 5,2 10,3 257 66 62 0 2 3,2 3,3 7
18.4.2021 15:30 5 10,2 236 50 62 0 3 3,8 3,3 6,9
18.4.2021 15:00 4,9 10,4 423 247 61 0 0 4,1 3,3 7
18.4.2021 14:30 4,8 9,7 326 148 63 0 0 4,4 3,1 6,6
18.4.2021 14:00 4,7 9,5 326 121 65 0 0 5,7 3,2 6,5
18.4.2021 13:30 4,5 9,5 328 101 65 0 0 6,2 3,4 6,6
18.4.2021 13:00 4,4 9,1 362 110 66 0 0 5,6 3,1 6,2
18.4.2021 12:30 4,4 8,3 378 193 70 0 0 4,9 3,1 5,8
18.4.2021 12:00 4,3 7,5 163 113 72 0 0 5,3 2,9 5,4
18.4.2021 11:30 4,2 7,8 192 168 70 0 0 7,4 2,8 5,5
18.4.2021 11:00 4,1 8,4 280 126 67 0 0 7,9 2,7 5,7
18.4.2021 10:30 4 8,1 310 129 68 0 0 6,5 2,4 5,5
18.4.2021 10:00 4 7,4 156 146 70 0 0 5,6 2,2 5
18.4.2021 9:30 3,9 7,3 150 106 71 0 0 5,7 2,4 5
18.4.2021 9:00 4 6,9 110 127 72 0 0 6 2,2 4,8
18.4.2021 8:30 3,9 6,9 90 104 73 0 0 4,9 2,3 4,8
18.4.2021 8:00 4 6,7 82 83 75 0 0 2,7 2,5 4,8
18.4.2021 7:30 4 6,2 41 95 79 0 0 0,9 2,8 4,6
18.4.2021 7:00 4 6,1 17 172 79 0 0 2,1 2,6 4,5
18.4.2021 6:30 4 6,2 0 142 76 0 0 2,6 2,3 4,4
18.4.2021 6:00 4,1 6,3 0 158 74 0 0 2,4 2,1 4,4
18.4.2021 5:30 4,1 6,3 0 159 74 0 0 0,8 2,1 4,4
18.4.2021 5:00 4,1 6,4 0 137 74 0 0 1,3 2,1 4,5
18.4.2021 4:30 4,2 6,4 0 130 74 0 0 1,5 2,1 4,5
18.4.2021 4:00 4,2 6,5 0 154 73 0 0 1,9 2,1 4,6
18.4.2021 3:30 4,2 6,8 0 127 72 0 3 2,8 2,1 4,6
18.4.2021 3:00 4,3 6,7 0 101 74 0 10 1,2 2,4 4,7
18.4.2021 2:30 4,3 6,8 0 63 73 0 10 0 2,3 4,7
18.4.2021 2:00 4,4 6,8 0 286 73 0 0 0,1 2,3 4,7
18.4.2021 1:30 4,4 7,1 0 185 70 0 0 1,5 2 4,8
18.4.2021 1:00 4,5 7,4 0 153 68 0 0 2,3 1,9 4,9
18.4.2021 0:30 4,5 7,7 0 118 66 0 0 4,8 1,8 5
18.4.2021 0:00 4,6 7,8 0 103 65 0 0 4,9 1,7 5
17.4.2021 23:30 4,7 8,1 0 120 63 0 0 5,2 1,6 5,1
17.4.2021 23:00 4,7 8,2 0 92 63 0 0 7 1,7 5,2
17.4.2021 22:30 4,8 8,2 0 102 64 0 0 4,6 1,9 5,3
17.4.2021 22:00 4,9 8,3 0 113 64 0 0 5,5 1,9 5,4